Time;durP1;ratioP1;P1;durP2;ratioP2;P2;SDS_P1;SDS_P2;PMS_P1;PMS_P2;Temp;Humidity;BMP_temperature;BMP_pressure;BME280_temperature;BME280_humidity;BME280_pressure;Samples;Min_cycle;Max_cycle;Signal;HPM_P1;HPM_P2
2021/12/19 00:00:54;;;;;;;35.53;17.10;;;;;;;;;;5095413;28;20522;-64
2021/12/19 00:03:46;;;;;;;32.47;17.30;;;;;;;;;;5092589;28;20993;-64
2021/12/19 00:09:00;;;;;;;38.23;17.47;;;;;;;;;;5094887;28;20506;-64
2021/12/19 00:11:30;;;;;;;31.87;16.77;;;;;;;;;;5096421;28;20945;-64
2021/12/19 00:13:58;;;;;;;36.20;17.77;;;;;;;;;;5095920;28;20802;-64
2021/12/19 00:16:27;;;;;;;33.07;16.90;;;;;;;;;;5099607;28;20475;-64
2021/12/19 00:18:55;;;;;;;33.23;17.50;;;;;;;;;;5093857;28;20465;-64
2021/12/19 00:21:25;;;;;;;39.40;18.60;;;;;;;;;;5093235;28;21034;-64
2021/12/19 00:23:56;;;;;;;37.67;18.53;;;;;;;;;;5083860;28;20516;-64
2021/12/19 00:26:24;;;;;;;35.47;18.43;;;;;;;;;;5083701;28;20432;-64
2021/12/19 00:28:54;;;;;;;36.63;18.87;;;;;;;;;;5086437;28;20551;-64
2021/12/19 00:31:22;;;;;;;33.27;18.43;;;;;;;;;;5084279;28;20506;-64
2021/12/19 00:33:50;;;;;;;36.63;18.43;;;;;;;;;;5083385;28;20452;-64
2021/12/19 00:36:19;;;;;;;35.47;18.53;;;;;;;;;;5080400;28;20487;-64
2021/12/19 00:38:47;;;;;;;34.90;19.47;;;;;;;;;;5080121;28;20463;-64
2021/12/19 00:41:15;;;;;;;38.87;20.07;;;;;;;;;;5081974;28;20439;-64
2021/12/19 00:43:53;;;;;;;37.67;20.10;;;;;;;;;;5081810;28;20547;-64
2021/12/19 00:46:25;;;;;;;36.47;18.40;;;;;;;;;;5091132;28;20439;-64
2021/12/19 00:48:54;;;;;;;37.53;20.20;;;;;;;;;;5098603;28;20519;-64
2021/12/19 00:51:23;;;;;;;35.03;19.50;;;;;;;;;;5099043;28;20523;-64
2021/12/19 00:53:51;;;;;;;37.63;19.50;;;;;;;;;;5098860;28;20877;-64
2021/12/19 00:56:19;;;;;;;41.03;19.20;;;;;;;;;;5092585;28;20486;-64
2021/12/19 00:58:47;;;;;;;35.13;19.07;;;;;;;;;;5091607;28;20894;-64
2021/12/19 01:01:24;;;;;;;32.83;18.00;;;;;;;;;;5099040;28;20452;-64
2021/12/19 01:03:53;;;;;;;39.53;19.27;;;;;;;;;;5098678;28;20490;-64
2021/12/19 01:06:22;;;;;;;64.97;27.93;;;;;;;;;;5097690;28;21016;-64
2021/12/19 01:08:50;;;;;;;65.93;25.13;;;;;;;;;;5098602;28;20498;-64
2021/12/19 01:11:18;;;;;;;39.13;18.80;;;;;;;;;;5094260;28;20444;-64
2021/12/19 01:13:46;;;;;;;34.73;18.33;;;;;;;;;;5098531;28;20539;-64
2021/12/19 01:16:15;;;;;;;38.57;20.77;;;;;;;;;;5098941;28;20542;-64
2021/12/19 01:18:46;;;;;;;35.67;18.57;;;;;;;;;;5098807;28;20463;-64
2021/12/19 01:21:16;;;;;;;31.90;18.23;;;;;;;;;;5098565;28;20535;-64
2021/12/19 01:23:44;;;;;;;36.63;18.47;;;;;;;;;;5098750;28;20502;-64
2021/12/19 01:26:12;;;;;;;33.63;18.10;;;;;;;;;;5098160;28;20548;-64
2021/12/19 01:28:42;;;;;;;34.20;17.63;;;;;;;;;;5103052;28;20553;-64
2021/12/19 01:31:10;;;;;;;37.23;18.33;;;;;;;;;;5105338;28;20531;-64
2021/12/19 01:33:38;;;;;;;34.97;18.57;;;;;;;;;;5098724;28;20451;-64
2021/12/19 01:36:06;;;;;;;32.33;17.83;;;;;;;;;;5097619;28;20570;-64
2021/12/19 01:38:36;;;;;;;32.80;17.93;;;;;;;;;;5098369;28;20470;-64
2021/12/19 01:41:04;;;;;;;33.17;17.27;;;;;;;;;;5098252;28;20535;-64
2021/12/19 01:43:32;;;;;;;37.23;17.17;;;;;;;;;;5096961;28;21061;-64
2021/12/19 01:46:00;;;;;;;35.07;17.93;;;;;;;;;;5097334;28;20526;-63
2021/12/19 01:48:28;;;;;;;40.07;19.33;;;;;;;;;;5097985;28;20478;-64
2021/12/19 01:50:56;;;;;;;38.37;18.83;;;;;;;;;;5098330;28;20450;-63
2021/12/19 01:53:24;;;;;;;40.13;19.23;;;;;;;;;;5098102;28;20488;-64
2021/12/19 01:55:54;;;;;;;36.73;17.43;;;;;;;;;;5097995;28;20526;-64
2021/12/19 01:58:22;;;;;;;36.70;17.37;;;;;;;;;;5096647;28;20502;-64
2021/12/19 02:00:51;;;;;;;33.83;17.90;;;;;;;;;;5097734;28;20535;-64
2021/12/19 02:03:19;;;;;;;33.17;16.73;;;;;;;;;;5097339;28;20455;-64
2021/12/19 02:05:47;;;;;;;33.57;17.00;;;;;;;;;;5097711;28;21390;-64
2021/12/19 02:08:16;;;;;;;34.33;17.33;;;;;;;;;;5097491;28;20871;-64
2021/12/19 02:10:45;;;;;;;34.37;18.20;;;;;;;;;;5097747;28;20470;-64
2021/12/19 02:13:15;;;;;;;34.50;18.97;;;;;;;;;;5097268;28;20483;-64
2021/12/19 02:15:44;;;;;;;38.50;18.57;;;;;;;;;;5097979;28;20479;-64
2021/12/19 02:18:12;;;;;;;33.70;18.30;;;;;;;;;;5097877;28;20566;-64
2021/12/19 02:20:43;;;;;;;35.23;19.20;;;;;;;;;;5097515;28;20958;-64
2021/12/19 02:23:11;;;;;;;38.50;18.80;;;;;;;;;;5097159;28;20526;-63
2021/12/19 02:25:40;;;;;;;32.60;18.23;;;;;;;;;;5097049;28;20460;-64
2021/12/19 02:28:08;;;;;;;33.30;17.90;;;;;;;;;;5096710;28;20503;-64
2021/12/19 02:30:37;;;;;;;32.40;17.90;;;;;;;;;;5086417;28;20501;-64
2021/12/19 02:33:09;;;;;;;33.77;17.77;;;;;;;;;;5096748;28;20459;-64
2021/12/19 02:35:37;;;;;;;36.53;18.67;;;;;;;;;;5097775;28;20444;-64
2021/12/19 02:38:30;;;;;;;37.10;17.27;;;;;;;;;;5097071;28;20566;-64
2021/12/19 02:49:23;;;;;;;35.17;17.50;;;;;;;;;;5097561;28;20527;-63
2021/12/19 02:51:52;;;;;;;30.63;17.07;;;;;;;;;;5096872;28;20531;-64
2021/12/19 02:54:22;;;;;;;29.37;17.17;;;;;;;;;;5097757;28;20446;-64
2021/12/19 02:56:50;;;;;;;35.90;17.63;;;;;;;;;;5099056;28;21096;-64
2021/12/19 02:59:18;;;;;;;33.63;17.97;;;;;;;;;;5100663;28;20471;-64
2021/12/19 03:01:47;;;;;;;31.03;16.70;;;;;;;;;;5101520;28;20447;-64
2021/12/19 03:04:15;;;;;;;34.77;17.23;;;;;;;;;;5100510;28;20458;-64
2021/12/19 03:06:45;;;;;;;39.50;18.90;;;;;;;;;;5100846;28;20503;-64
2021/12/19 03:09:15;;;;;;;30.83;17.57;;;;;;;;;;5101194;28;20481;-64
2021/12/19 03:20:01;;;;;;;32.23;16.47;;;;;;;;;;5100230;28;20621;-64
2021/12/19 03:22:29;;;;;;;35.40;17.43;;;;;;;;;;5100987;28;20530;-64
2021/12/19 03:24:56;;;;;;;35.63;17.67;;;;;;;;;;5101066;28;20440;-64
2021/12/19 03:27:26;;;;;;;33.23;19.03;;;;;;;;;;5100352;28;20516;-64
2021/12/19 03:29:54;;;;;;;34.63;18.70;;;;;;;;;;5112361;28;20485;-64
2021/12/19 03:32:24;;;;;;;40.70;18.47;;;;;;;;;;5100006;28;20590;-64
2021/12/19 03:34:52;;;;;;;36.93;18.90;;;;;;;;;;5100394;28;20458;-64
2021/12/19 03:37:20;;;;;;;33.77;17.43;;;;;;;;;;5100557;28;20479;-64
2021/12/19 03:39:57;;;;;;;37.47;19.07;;;;;;;;;;5100374;28;20463;-64
2021/12/19 03:42:28;;;;;;;35.43;18.00;;;;;;;;;;5100757;28;20475;-63
2021/12/19 03:44:57;;;;;;;33.67;16.90;;;;;;;;;;5100759;28;20523;-64
2021/12/19 03:47:24;;;;;;;33.97;18.63;;;;;;;;;;5100077;28;20538;-64
2021/12/19 03:49:52;;;;;;;35.90;17.93;;;;;;;;;;5100491;28;20489;-63
2021/12/19 03:52:21;;;;;;;36.97;19.73;;;;;;;;;;5100314;28;20534;-64
2021/12/19 03:54:48;;;;;;;36.17;19.13;;;;;;;;;;5100534;28;20531;-64
2021/12/19 03:57:16;;;;;;;35.83;19.40;;;;;;;;;;5096040;28;20558;-64
2021/12/19 03:59:48;;;;;;;35.33;17.37;;;;;;;;;;5100103;28;20558;-64
2021/12/19 04:02:23;;;;;;;31.07;18.30;;;;;;;;;;5099412;28;20589;-63
2021/12/19 04:04:51;;;;;;;44.07;19.50;;;;;;;;;;5100366;28;20507;-64
2021/12/19 04:07:19;;;;;;;40.63;19.37;;;;;;;;;;5099396;28;21049;-63
2021/12/19 04:09:48;;;;;;;34.87;18.33;;;;;;;;;;5099679;28;20494;-63
2021/12/19 04:12:16;;;;;;;35.57;19.23;;;;;;;;;;5099941;28;20543;-63
2021/12/19 04:14:44;;;;;;;37.20;19.00;;;;;;;;;;5099876;28;20465;-64
2021/12/19 04:17:13;;;;;;;41.80;19.97;;;;;;;;;;5098454;28;20479;-64
2021/12/19 04:19:41;;;;;;;41.40;18.70;;;;;;;;;;5100023;28;20466;-64
2021/12/19 04:22:09;;;;;;;39.07;19.63;;;;;;;;;;5099426;28;20454;-64
2021/12/19 04:24:37;;;;;;;38.80;20.30;;;;;;;;;;5100169;28;20451;-64
2021/12/19 04:27:05;;;;;;;40.30;20.23;;;;;;;;;;5098203;28;20460;-64
2021/12/19 04:29:33;;;;;;;39.93;19.07;;;;;;;;;;5099306;28;20984;-64
2021/12/19 04:32:01;;;;;;;39.37;19.60;;;;;;;;;;5099019;28;20554;-63
2021/12/19 04:34:31;;;;;;;38.13;18.20;;;;;;;;;;5099478;28;20946;-63
2021/12/19 04:37:07;;;;;;;36.20;18.53;;;;;;;;;;5099501;28;20447;-64
2021/12/19 04:39:40;;;;;;;40.20;19.73;;;;;;;;;;5097901;28;21004;-63
2021/12/19 04:53:22;;;;;;;40.90;18.30;;;;;;;;;;5098697;28;20534;-63
2021/12/19 04:56:19;;;;;;;42.33;18.33;;;;;;;;;;5098460;28;21022;-63
2021/12/19 05:04:37;;;;;;;36.27;18.13;;;;;;;;;;5073048;28;20454;-64
2021/12/19 05:15:27;;;;;;;37.00;18.20;;;;;;;;;;5098438;28;20481;-63
2021/12/19 05:17:59;;;;;;;42.87;19.90;;;;;;;;;;5098915;28;20483;-63
2021/12/19 05:20:29;;;;;;;35.33;17.73;;;;;;;;;;5098878;28;20447;-64
2021/12/19 05:23:04;;;;;;;42.03;19.20;;;;;;;;;;5098504;28;20511;-64
2021/12/19 05:25:32;;;;;;;41.83;18.53;;;;;;;;;;5098569;28;21008;-63
2021/12/19 05:28:01;;;;;;;39.90;20.27;;;;;;;;;;5098389;28;20478;-63
2021/12/19 05:30:29;;;;;;;36.17;19.30;;;;;;;;;;5096932;28;20534;-63
2021/12/19 05:32:59;;;;;;;39.37;18.37;;;;;;;;;;5098590;28;20448;-64
2021/12/19 05:35:45;;;;;;;37.10;19.00;;;;;;;;;;5098691;28;20447;-64
2021/12/19 05:46:31;;;;;;;38.07;18.63;;;;;;;;;;5093407;28;20922;-64
2021/12/19 05:48:59;;;;;;;36.60;17.90;;;;;;;;;;5096831;28;20459;-63
2021/12/19 05:51:27;;;;;;;39.70;19.80;;;;;;;;;;5093672;28;20440;-63
2021/12/19 05:53:57;;;;;;;38.77;19.67;;;;;;;;;;5090943;28;20478;-64
2021/12/19 05:56:25;;;;;;;45.77;18.93;;;;;;;;;;5092177;28;20436;-64
2021/12/19 05:58:53;;;;;;;41.23;19.83;;;;;;;;;;5094480;28;20544;-63
2021/12/19 06:01:21;;;;;;;40.73;19.50;;;;;;;;;;5090976;28;20456;-64
2021/12/19 06:03:49;;;;;;;46.00;21.03;;;;;;;;;;5096988;28;20883;-64
2021/12/19 06:06:17;;;;;;;40.73;19.30;;;;;;;;;;5096000;28;20503;-63
2021/12/19 06:08:46;;;;;;;40.50;20.63;;;;;;;;;;5085439;28;20476;-63
2021/12/19 06:11:15;;;;;;;47.83;19.43;;;;;;;;;;5095895;28;20496;-63
2021/12/19 06:13:43;;;;;;;39.70;19.20;;;;;;;;;;5092717;28;20432;-64
2021/12/19 06:16:11;;;;;;;36.27;17.77;;;;;;;;;;5096133;28;20523;-63
2021/12/19 06:18:40;;;;;;;40.47;19.23;;;;;;;;;;5092590;28;20562;-64
2021/12/19 06:21:09;;;;;;;34.63;17.63;;;;;;;;;;5095191;28;20513;-64
2021/12/19 06:23:38;;;;;;;38.17;18.67;;;;;;;;;;5093868;28;20519;-63
2021/12/19 06:26:10;;;;;;;37.90;18.97;;;;;;;;;;5096295;28;20923;-63
2021/12/19 06:28:39;;;;;;;39.97;19.13;;;;;;;;;;5091663;28;21054;-63
2021/12/19 06:31:07;;;;;;;42.20;19.80;;;;;;;;;;5091428;28;20814;-63
2021/12/19 06:33:35;;;;;;;38.20;19.37;;;;;;;;;;5093539;28;20455;-64
2021/12/19 06:36:04;;;;;;;41.20;19.13;;;;;;;;;;5092868;28;20443;-63
2021/12/19 06:38:32;;;;;;;44.20;20.57;;;;;;;;;;5097819;28;20510;-63
2021/12/19 06:41:00;;;;;;;40.73;20.23;;;;;;;;;;5093727;28;20454;-63
2021/12/19 06:43:30;;;;;;;35.33;17.93;;;;;;;;;;5090996;28;20467;-63
2021/12/19 06:45:59;;;;;;;41.90;19.83;;;;;;;;;;5092260;28;20479;-63
2021/12/19 06:48:27;;;;;;;39.43;19.03;;;;;;;;;;5091058;28;20904;-63
2021/12/19 06:50:55;;;;;;;44.53;19.37;;;;;;;;;;5092840;28;20533;-63
2021/12/19 06:53:23;;;;;;;36.37;18.13;;;;;;;;;;5092130;28;20539;-63
2021/12/19 06:55:52;;;;;;;45.60;20.37;;;;;;;;;;5094719;28;20451;-63
2021/12/19 06:58:20;;;;;;;37.43;16.63;;;;;;;;;;5093444;28;20500;-64
2021/12/19 07:00:48;;;;;;;36.70;17.67;;;;;;;;;;5094974;28;20487;-63
2021/12/19 07:03:23;;;;;;;43.33;19.60;;;;;;;;;;5095559;28;20455;-63
2021/12/19 07:05:51;;;;;;;41.60;19.07;;;;;;;;;;5095398;28;20840;-64
2021/12/19 07:08:21;;;;;;;44.77;19.97;;;;;;;;;;5088294;28;21050;-64
2021/12/19 07:10:49;;;;;;;45.83;19.33;;;;;;;;;;5092622;28;20447;-63
2021/12/19 07:13:20;;;;;;;42.43;19.50;;;;;;;;;;5093214;28;20947;-64
2021/12/19 07:15:48;;;;;;;38.07;19.67;;;;;;;;;;5090460;28;20941;-63
2021/12/19 07:18:18;;;;;;;38.20;18.93;;;;;;;;;;5090475;28;20471;-63
2021/12/19 07:20:46;;;;;;;40.17;20.43;;;;;;;;;;5086997;28;20453;-63
2021/12/19 07:23:14;;;;;;;44.43;20.00;;;;;;;;;;5088148;28;20471;-63
2021/12/19 07:25:42;;;;;;;40.53;18.93;;;;;;;;;;5092527;28;20990;-63
2021/12/19 07:28:11;;;;;;;37.27;18.13;;;;;;;;;;5088402;28;20550;-63
2021/12/19 07:30:40;;;;;;;37.83;18.73;;;;;;;;;;5092410;28;20519;-64
2021/12/19 07:33:09;;;;;;;41.07;20.37;;;;;;;;;;5089675;28;20524;-63
2021/12/19 07:35:42;;;;;;;42.87;19.33;;;;;;;;;;5088621;28;20523;-63
2021/12/19 07:38:12;;;;;;;42.90;19.17;;;;;;;;;;5094962;28;21066;-63
2021/12/19 07:40:46;;;;;;;45.33;20.20;;;;;;;;;;5092126;28;20569;-64
2021/12/19 07:43:14;;;;;;;37.50;18.83;;;;;;;;;;5096104;28;20533;-63
2021/12/19 07:45:42;;;;;;;38.30;17.33;;;;;;;;;;5094737;28;20862;-63
2021/12/19 07:48:11;;;;;;;38.13;17.53;;;;;;;;;;5099188;28;20982;-63
2021/12/19 07:50:40;;;;;;;42.50;20.00;;;;;;;;;;5097938;28;20456;-62
2021/12/19 07:53:08;;;;;;;40.57;18.97;;;;;;;;;;5098885;28;20909;-63
2021/12/19 07:55:37;;;;;;;39.83;19.33;;;;;;;;;;5098381;28;20961;-63
2021/12/19 07:58:05;;;;;;;41.20;19.63;;;;;;;;;;5098860;28;20550;-63
2021/12/19 08:00:33;;;;;;;39.47;17.77;;;;;;;;;;5088946;28;20486;-63
2021/12/19 08:03:01;;;;;;;42.30;19.03;;;;;;;;;;5091267;28;20467;-63
2021/12/19 08:05:29;;;;;;;36.13;17.43;;;;;;;;;;5095707;28;20849;-63
2021/12/19 08:08:02;;;;;;;37.47;18.37;;;;;;;;;;5094160;28;20458;-63
2021/12/19 08:13:16;;;;;;;33.73;16.97;;;;;;;;;;5101583;28;20479;-63
2021/12/19 08:15:44;;;;;;;41.63;19.67;;;;;;;;;;5100485;28;20460;-63
2021/12/19 08:18:12;;;;;;;39.87;18.23;;;;;;;;;;5107358;28;20885;-63
2021/12/19 08:20:40;;;;;;;40.03;20.07;;;;;;;;;;5107082;28;20487;-63
2021/12/19 08:23:10;;;;;;;39.50;18.77;;;;;;;;;;5104531;28;20455;-64
2021/12/19 08:25:38;;;;;;;34.57;18.10;;;;;;;;;;5106826;28;20446;-64
2021/12/19 08:28:06;;;;;;;41.07;19.20;;;;;;;;;;5103297;28;21076;-64
2021/12/19 08:30:34;;;;;;;39.40;19.20;;;;;;;;;;5102507;28;20531;-64
2021/12/19 08:33:02;;;;;;;37.77;19.33;;;;;;;;;;5100217;28;20458;-64
2021/12/19 08:35:30;;;;;;;36.73;18.90;;;;;;;;;;5105503;28;20463;-64
2021/12/19 08:37:58;;;;;;;41.20;20.00;;;;;;;;;;5107331;28;20490;-64
2021/12/19 08:40:29;;;;;;;39.00;18.43;;;;;;;;;;5104363;28;20567;-64
2021/12/19 08:42:57;;;;;;;45.90;19.80;;;;;;;;;;5096962;28;20563;-64
2021/12/19 08:45:26;;;;;;;44.60;20.80;;;;;;;;;;5095254;28;20539;-63
2021/12/19 08:47:54;;;;;;;40.63;19.77;;;;;;;;;;5104141;28;20566;-63
2021/12/19 08:50:23;;;;;;;40.37;19.60;;;;;;;;;;5105375;28;20444;-63
2021/12/19 08:52:52;;;;;;;44.37;19.93;;;;;;;;;;5105261;28;20475;-63
2021/12/19 08:55:20;;;;;;;39.53;19.17;;;;;;;;;;5102225;28;20459;-63
2021/12/19 08:57:50;;;;;;;37.30;18.50;;;;;;;;;;5098326;28;20451;-64
2021/12/19 09:00:19;;;;;;;37.47;19.93;;;;;;;;;;5096528;28;20486;-63
2021/12/19 09:02:51;;;;;;;45.47;21.03;;;;;;;;;;5103176;28;20530;-63
2021/12/19 09:05:19;;;;;;;37.47;18.23;;;;;;;;;;5107505;28;20538;-63
2021/12/19 09:07:50;;;;;;;42.00;20.93;;;;;;;;;;5096500;28;20505;-64
2021/12/19 09:10:19;;;;;;;42.17;19.50;;;;;;;;;;5095136;28;20451;-64
2021/12/19 09:12:47;;;;;;;42.10;18.77;;;;;;;;;;5092729;28;20845;-63
2021/12/19 09:15:16;;;;;;;46.40;22.17;;;;;;;;;;5094126;28;21060;-63
2021/12/19 09:17:44;;;;;;;38.10;18.87;;;;;;;;;;5094490;28;20572;-63
2021/12/19 09:20:13;;;;;;;49.73;22.07;;;;;;;;;;5094824;28;20479;-63
2021/12/19 09:22:41;;;;;;;44.50;19.53;;;;;;;;;;5099214;28;20957;-63
2021/12/19 09:25:18;;;;;;;37.03;18.93;;;;;;;;;;5104539;28;20473;-63
2021/12/19 09:27:46;;;;;;;37.23;17.70;;;;;;;;;;5103556;28;20946;-64
2021/12/19 09:30:14;;;;;;;41.83;20.23;;;;;;;;;;5098830;28;20474;-64
2021/12/19 09:32:44;;;;;;;42.70;19.53;;;;;;;;;;5103986;28;20522;-63
2021/12/19 09:35:14;;;;;;;40.80;18.50;;;;;;;;;;5107418;28;20438;-64
2021/12/19 09:37:42;;;;;;;35.23;18.23;;;;;;;;;;5103383;28;20874;-63
2021/12/19 09:40:12;;;;;;;41.03;20.17;;;;;;;;;;5104889;28;20518;-63
2021/12/19 09:42:47;;;;;;;45.03;21.87;;;;;;;;;;5104844;28;20459;-63
2021/12/19 09:45:15;;;;;;;40.87;20.20;;;;;;;;;;5106610;28;20458;-63
2021/12/19 09:47:45;;;;;;;40.10;20.37;;;;;;;;;;5103034;28;20454;-63
2021/12/19 09:50:14;;;;;;;41.67;17.73;;;;;;;;;;5096162;28;20542;-63
2021/12/19 09:52:42;;;;;;;40.13;20.30;;;;;;;;;;5095081;28;21026;-64
2021/12/19 09:55:10;;;;;;;39.70;18.93;;;;;;;;;;5096020;28;20462;-63
2021/12/19 09:57:38;;;;;;;38.73;19.67;;;;;;;;;;5099272;28;20451;-63
2021/12/19 10:00:07;;;;;;;39.00;21.17;;;;;;;;;;5103347;28;20485;-64
2021/12/19 10:02:35;;;;;;;41.73;20.97;;;;;;;;;;5100848;28;20450;-63
2021/12/19 10:05:16;;;;;;;38.53;19.50;;;;;;;;;;5101575;28;20483;-64
2021/12/19 10:07:48;;;;;;;41.67;21.23;;;;;;;;;;5104441;28;20479;-64
2021/12/19 10:10:25;;;;;;;42.90;19.87;;;;;;;;;;5099161;28;20861;-63
2021/12/19 10:12:54;;;;;;;39.80;19.27;;;;;;;;;;5105565;28;20493;-64
2021/12/19 10:15:28;;;;;;;46.17;20.47;;;;;;;;;;5105744;28;20471;-64
2021/12/19 10:18:07;;;;;;;41.70;19.33;;;;;;;;;;5101018;28;20455;-64
2021/12/19 10:20:43;;;;;;;46.77;21.20;;;;;;;;;;5094513;28;20489;-64
2021/12/19 10:23:12;;;;;;;45.93;19.07;;;;;;;;;;5104129;28;20478;-63
2021/12/19 10:25:40;;;;;;;43.00;20.30;;;;;;;;;;5105719;28;20518;-64
2021/12/19 10:28:09;;;;;;;40.73;19.37;;;;;;;;;;5102079;28;20601;-64
2021/12/19 10:30:39;;;;;;;44.30;21.30;;;;;;;;;;5095822;28;20478;-64
2021/12/19 10:33:09;;;;;;;36.53;19.67;;;;;;;;;;5105672;28;20455;-64
2021/12/19 10:35:39;;;;;;;46.10;21.43;;;;;;;;;;5104281;28;20450;-64
2021/12/19 10:38:13;;;;;;;40.33;19.90;;;;;;;;;;5106567;28;20500;-63
2021/12/19 10:40:45;;;;;;;43.30;20.97;;;;;;;;;;5104210;28;20486;-64
2021/12/19 10:43:17;;;;;;;40.70;19.70;;;;;;;;;;5091265;28;20456;-63
2021/12/19 10:45:47;;;;;;;46.90;22.27;;;;;;;;;;5096429;28;20463;-63
2021/12/19 10:48:23;;;;;;;40.87;20.57;;;;;;;;;;5095743;28;20528;-64
2021/12/19 10:50:53;;;;;;;42.87;20.67;;;;;;;;;;5095671;28;20456;-64
2021/12/19 10:53:26;;;;;;;39.60;20.53;;;;;;;;;;5095052;28;20489;-64
2021/12/19 10:56:00;;;;;;;41.90;20.67;;;;;;;;;;5096081;28;20486;-64
2021/12/19 10:58:31;;;;;;;39.03;19.40;;;;;;;;;;5088203;28;20551;-64
2021/12/19 11:01:04;;;;;;;44.70;20.57;;;;;;;;;;5103150;28;20500;-64
2021/12/19 11:03:50;;;;;;;34.57;19.23;;;;;;;;;;5094418;28;20456;-64
2021/12/19 11:06:23;;;;;;;40.67;20.20;;;;;;;;;;5094581;28;20479;-63
2021/12/19 11:08:53;;;;;;;43.57;19.47;;;;;;;;;;5096860;28;20483;-64
2021/12/19 11:11:36;;;;;;;33.90;19.40;;;;;;;;;;5094400;28;20451;-64
2021/12/19 11:14:05;;;;;;;49.17;22.23;;;;;;;;;;5095307;28;20452;-64
2021/12/19 11:16:33;;;;;;;38.17;19.80;;;;;;;;;;5095660;28;20455;-64
2021/12/19 11:19:01;;;;;;;47.30;20.90;;;;;;;;;;5099385;28;20580;-64
2021/12/19 11:21:34;;;;;;;39.20;19.93;;;;;;;;;;5098278;28;20566;-64
2021/12/19 11:24:05;;;;;;;45.63;22.23;;;;;;;;;;5099792;28;20496;-64
2021/12/19 11:26:34;;;;;;;40.77;19.47;;;;;;;;;;5098875;28;20875;-64
2021/12/19 11:29:02;;;;;;;40.87;19.97;;;;;;;;;;5099284;28;20471;-64
2021/12/19 11:31:32;;;;;;;40.40;21.13;;;;;;;;;;5099150;28;20455;-64
2021/12/19 11:34:07;;;;;;;37.70;18.70;;;;;;;;;;5098048;28;20463;-64
2021/12/19 11:36:37;;;;;;;38.57;19.83;;;;;;;;;;5099304;28;20463;-64
2021/12/19 11:39:07;;;;;;;34.50;18.57;;;;;;;;;;5099376;28;20528;-64
2021/12/19 11:41:36;;;;;;;42.47;21.13;;;;;;;;;;5098996;28;20892;-64
2021/12/19 11:44:07;;;;;;;41.70;21.40;;;;;;;;;;5097726;28;20455;-64
2021/12/19 11:46:46;;;;;;;42.93;19.93;;;;;;;;;;5098662;28;20504;-64
2021/12/19 11:49:21;;;;;;;40.60;20.33;;;;;;;;;;5098277;28;21022;-64
2021/12/19 11:51:49;;;;;;;39.23;19.80;;;;;;;;;;5097724;28;20819;-64
2021/12/19 11:54:19;;;;;;;40.63;21.07;;;;;;;;;;5098803;28;20534;-64
2021/12/19 11:57:08;;;;;;;38.60;21.60;;;;;;;;;;5096064;28;20471;-67
2021/12/19 11:59:38;;;;;;;37.47;19.17;;;;;;;;;;5098459;28;21004;-69
2021/12/19 12:02:27;;;;;;;39.70;21.27;;;;;;;;;;5104683;28;20565;-69
2021/12/19 12:05:14;;;;;;;39.67;21.43;;;;;;;;;;5100757;28;20879;-69
2021/12/19 12:07:56;;;;;;;41.10;20.83;;;;;;;;;;5106051;28;20477;-64
2021/12/19 12:10:26;;;;;;;42.73;20.47;;;;;;;;;;5103741;28;22620;-64
2021/12/19 12:12:54;;;;;;;42.77;20.63;;;;;;;;;;5108667;28;21026;-64
2021/12/19 12:15:32;;;;;;;42.20;21.47;;;;;;;;;;5107956;28;20514;-64
2021/12/19 12:18:01;;;;;;;38.10;19.47;;;;;;;;;;5108145;28;20682;-64
2021/12/19 12:20:32;;;;;;;43.17;20.90;;;;;;;;;;5102518;28;20542;-64
2021/12/19 12:23:06;;;;;;;40.53;20.90;;;;;;;;;;5106566;28;20565;-64
2021/12/19 12:25:41;;;;;;;43.27;20.40;;;;;;;;;;5104873;28;20515;-64
2021/12/19 12:28:16;;;;;;;41.00;21.10;;;;;;;;;;5104273;28;20478;-64
2021/12/19 12:30:46;;;;;;;42.70;21.17;;;;;;;;;;5106512;28;20454;-64
2021/12/19 12:33:16;;;;;;;48.83;23.10;;;;;;;;;;5098215;28;20473;-64
2021/12/19 12:35:45;;;;;;;43.17;21.63;;;;;;;;;;5093038;28;20455;-73
2021/12/19 12:38:14;;;;;;;43.87;19.93;;;;;;;;;;5096596;28;20837;-65
2021/12/19 12:40:49;;;;;;;42.43;20.30;;;;;;;;;;5097139;28;20546;-65
2021/12/19 12:43:18;;;;;;;43.60;20.83;;;;;;;;;;5093280;28;20568;-64
2021/12/19 12:45:54;;;;;;;41.50;22.43;;;;;;;;;;5097213;28;20474;-64
2021/12/19 12:48:35;;;;;;;47.07;22.27;;;;;;;;;;5094463;28;20546;-64
2021/12/19 12:51:05;;;;;;;41.70;21.13;;;;;;;;;;5096838;28;20467;-64
2021/12/19 12:53:34;;;;;;;43.27;21.97;;;;;;;;;;5089876;28;20479;-65
2021/12/19 12:56:08;;;;;;;46.57;21.53;;;;;;;;;;5081543;28;20488;-65
2021/12/19 12:58:37;;;;;;;39.90;20.50;;;;;;;;;;5080622;28;21016;-64
2021/12/19 13:01:16;;;;;;;41.03;20.27;;;;;;;;;;5079616;28;20486;-64
2021/12/19 13:03:58;;;;;;;37.20;19.50;;;;;;;;;;5084716;28;20575;-64
2021/12/19 13:06:49;;;;;;;41.63;21.07;;;;;;;;;;5085480;28;20476;-64
2021/12/19 13:09:19;;;;;;;43.90;19.77;;;;;;;;;;5091942;28;20547;-64
2021/12/19 13:11:49;;;;;;;40.53;20.37;;;;;;;;;;5097714;28;21010;-64
2021/12/19 13:14:19;;;;;;;45.10;22.30;;;;;;;;;;5098125;28;20515;-63
2021/12/19 13:16:48;;;;;;;44.97;22.07;;;;;;;;;;5097694;28;20530;-64
2021/12/19 13:19:36;;;;;;;43.87;21.63;;;;;;;;;;5097446;28;20550;-64
2021/12/19 13:22:05;;;;;;;46.60;22.23;;;;;;;;;;5097238;28;20607;-64
2021/12/19 13:24:35;;;;;;;45.13;20.97;;;;;;;;;;5097926;28;20448;-64
2021/12/19 13:27:05;;;;;;;47.03;21.57;;;;;;;;;;5097979;28;20473;-65
2021/12/19 13:29:34;;;;;;;48.37;20.10;;;;;;;;;;5094301;28;21056;-64
2021/12/19 13:32:18;;;;;;;42.67;19.33;;;;;;;;;;5102811;28;20450;-64
2021/12/19 13:34:46;;;;;;;48.03;19.43;;;;;;;;;;5097483;28;20943;-63
2021/12/19 13:37:14;;;;;;;49.40;20.37;;;;;;;;;;5097551;28;20534;-65
2021/12/19 13:39:43;;;;;;;42.63;17.93;;;;;;;;;;5099116;28;20463;-64
2021/12/19 13:42:13;;;;;;;54.03;20.70;;;;;;;;;;5103572;28;20554;-64
2021/12/19 13:44:42;;;;;;;49.03;19.30;;;;;;;;;;5104250;28;20889;-64
2021/12/19 13:47:11;;;;;;;48.43;19.03;;;;;;;;;;5097434;28;20522;-64
2021/12/19 13:49:39;;;;;;;42.73;20.10;;;;;;;;;;5096609;28;20476;-64
2021/12/19 13:52:07;;;;;;;52.03;20.53;;;;;;;;;;5097801;28;20436;-65
2021/12/19 13:54:38;;;;;;;52.87;21.27;;;;;;;;;;5105542;28;20471;-65
2021/12/19 13:57:21;;;;;;;46.77;18.03;;;;;;;;;;5098057;28;20451;-65
2021/12/19 13:59:50;;;;;;;42.47;18.13;;;;;;;;;;5095476;28;20809;-64
2021/12/19 14:02:18;;;;;;;45.37;18.87;;;;;;;;;;5105350;28;20539;-67
2021/12/19 14:04:46;;;;;;;44.53;19.13;;;;;;;;;;5109631;28;20490;-66
2021/12/19 14:07:15;;;;;;;48.07;19.13;;;;;;;;;;5105910;28;20511;-66
2021/12/19 14:09:55;;;;;;;42.17;19.77;;;;;;;;;;5104304;28;20471;-66
2021/12/19 14:12:28;;;;;;;43.67;18.43;;;;;;;;;;5108441;28;20805;-65
2021/12/19 14:15:09;;;;;;;47.37;18.93;;;;;;;;;;5092826;28;20530;-65
2021/12/19 14:17:42;;;;;;;49.17;21.30;;;;;;;;;;5104771;28;20852;-65
2021/12/19 14:20:10;;;;;;;44.50;18.27;;;;;;;;;;5096980;28;20534;-65
2021/12/19 14:22:38;;;;;;;42.43;16.80;;;;;;;;;;5096786;28;20558;-65
2021/12/19 14:25:07;;;;;;;43.13;16.53;;;;;;;;;;5104354;28;20449;-66
2021/12/19 14:27:36;;;;;;;44.83;16.93;;;;;;;;;;5103564;28;20973;-65
2021/12/19 14:30:06;;;;;;;37.10;14.97;;;;;;;;;;5095180;28;20557;-65
2021/12/19 14:32:36;;;;;;;34.20;14.70;;;;;;;;;;5097322;28;20443;-65
2021/12/19 14:35:06;;;;;;;40.13;15.07;;;;;;;;;;5105521;28;20512;-65
2021/12/19 14:37:35;;;;;;;32.53;14.20;;;;;;;;;;5097615;28;20443;-65
2021/12/19 14:40:08;;;;;;;33.73;14.43;;;;;;;;;;5105717;28;20479;-65
2021/12/19 14:42:37;;;;;;;35.37;12.20;;;;;;;;;;5105329;28;20478;-65
2021/12/19 14:45:07;;;;;;;44.33;14.90;;;;;;;;;;5104545;28;20515;-65
2021/12/19 14:47:38;;;;;;;28.97;14.47;;;;;;;;;;5102075;28;20537;-65
2021/12/19 14:50:13;;;;;;;38.67;15.10;;;;;;;;;;5096683;28;20447;-65
2021/12/19 14:52:56;;;;;;;28.60;13.73;;;;;;;;;;5097904;28;20821;-65
2021/12/19 14:55:25;;;;;;;30.90;14.13;;;;;;;;;;5097985;28;20550;-65
2021/12/19 14:57:54;;;;;;;39.60;13.90;;;;;;;;;;5103576;28;20513;-65
2021/12/19 15:00:22;;;;;;;34.43;12.93;;;;;;;;;;5100531;28;20867;-65
2021/12/19 15:02:51;;;;;;;33.27;13.53;;;;;;;;;;5100883;28;21073;-65
2021/12/19 15:05:19;;;;;;;32.60;12.57;;;;;;;;;;5108193;28;20447;-64
2021/12/19 15:07:47;;;;;;;25.17;12.27;;;;;;;;;;5099840;28;20522;-65
2021/12/19 15:10:16;;;;;;;24.63;11.90;;;;;;;;;;5102762;28;20950;-65
2021/12/19 15:12:44;;;;;;;32.93;13.03;;;;;;;;;;5106398;28;20540;-65
2021/12/19 15:15:15;;;;;;;32.23;12.80;;;;;;;;;;5113777;28;20846;-65
2021/12/19 15:17:44;;;;;;;40.07;16.33;;;;;;;;;;5110882;28;20875;-66
2021/12/19 15:20:14;;;;;;;35.23;14.27;;;;;;;;;;5108808;28;20512;-70
2021/12/19 15:22:43;;;;;;;35.37;13.87;;;;;;;;;;5103128;28;20477;-70
2021/12/19 15:25:12;;;;;;;34.20;14.23;;;;;;;;;;5108659;28;20453;-71
2021/12/19 15:27:42;;;;;;;32.60;13.30;;;;;;;;;;5102750;28;20483;-70
2021/12/19 15:30:11;;;;;;;36.27;12.57;;;;;;;;;;5108931;28;20454;-70